Lester Prairie, MN (55354)

10:09 PM CDT on April 27, 2017 (GMT -0500)
Winsted-George Ave | | Change Station

Elev 1036 ft 44.97 °N, 94.04 °W | Updated 26 seconds ago

Overcast
Overcast
32.6 °F
Feels Like 33 °F
N
0.0
Wind Variable Wind from West

Today
High -- | Low -- °F
--% Chance of Precip.
Yesterday
High -- | Low -- °F
Precip. -- in
Pressure 29.78 in
Visibility 10.0 miles
Clouds Mostly Cloudy 2800 ft
Overcast 3700 ft
Windchill 33 °F
Dew Point 27 °F
Humidity 80%
Rainfall 0.00 in
Snow Depth Not available.
6:11 AM 8:16 PM
Waxing Crescent, 4% visible
METAR KGYL 280256Z AUTO 25005KT 10SM BKN028 OVC037 02/M01 A2978 RMK AO2 T00171007
Pressure 29.78 in
Visibility 10.0 miles
Clouds Mostly Cloudy 2800 ft
Overcast 3700 ft
Windchill 33 °F
Dew Point 27 °F
Humidity 80%
Rainfall 0.00 in
Snow Depth Not available.
6:11 AM 8:16 PM
Waxing Crescent, 4% visible
METAR KGYL 280256Z AUTO 25005KT 10SM BKN028 OVC037 02/M01 A2978 RMK AO2 T00171007

Get Severe Weather Alerts

Thanks for signing up!

Be on the lookout for a verification email in your inbox.

You'll start receiving the daily forecast at 8 AM.

×

10-Day Weather Forecast

Almanac

Astronomy

Apr. 27, 2017 Rise Set
Actual Time
Civil Twilight
Nautical Twilight
Astronomical Twilight
Moon
Length of Visible Light
Length of Day
Tomorrow will be .
, % of the Moon is Illuminated

Today's Extremes

State Highs State Lows

Community

WunderPhotos

WunderBlog® & News

Nearby

Air Quality

  Air Quality AQ Index Pollutant
Not available.

Snow Depth

Station Depth Elevation

Earthquake Activity

City Distance Mag. Time & Date
Minimum magnitude displayed is 2.5.

Coastal Water Temperatures

Place Temperature

Stations

Nearby Weather Stations

Station Location Temp. Windchill Dew Point Humidity Wind Precip. Elev Updated Type
                   

Watches & Warnings

There are currently no watches in effect.